CXA5781 ZSFZ-ZPLJ
Flight info
| Callsign | CXA5781 |
|---|---|
| Flight time | N/A |
| Altitude | 38100 |
| Route | ENVEN A470 TEBON W155 VETIB DCT OLPAB W44 CON A599 LXI W148 XSJ W146 BUBSU/K0863S1130 W162 DAL DAL21A |
| Aircraft | A20N/M-SDE2E3FGHIRWXY/LB1 |
Departure
| Time | 2026-04-14 07:21 |
|---|---|
| Airport | Fuzhou Changle International Airport (ZSFZ) |
Arrival
| Time | N/A |
|---|---|
| Airport | Lijiang Sanyi International Airport (ZPLJ) |
| Time | Latitude | Longitude | Altitude | Speed | Heading |
|---|---|---|---|---|---|
| 2026-04-14 06:46 | 25.92999 | 119.66618 | 55 ft | 0 kts | 117° |
| 2026-04-14 07:08 | 25.93000 | 119.66618 | 55 ft | 1 kts | 117° |
| 2026-04-14 07:08 | 25.93006 | 119.66603 | 55 ft | 2 kts | 117° |
| 2026-04-14 07:08 | 25.93013 | 119.66588 | 55 ft | 2 kts | 117° |
| 2026-04-14 07:09 | 25.93020 | 119.66573 | 55 ft | 2 kts | 117° |
| 2026-04-14 07:09 | 25.93026 | 119.66559 | 55 ft | 2 kts | 117° |
| 2026-04-14 07:09 | 25.93033 | 119.66544 | 55 ft | 2 kts | 117° |
| 2026-04-14 07:09 | 25.93042 | 119.66532 | 55 ft | 2 kts | 166° |
| 2026-04-14 07:10 | 25.93052 | 119.66532 | 55 ft | 0 kts | 204° |
| 2026-04-14 07:10 | 25.93059 | 119.66537 | 55 ft | 1 kts | 208° |
| 2026-04-14 07:12 | 25.93058 | 119.66536 | 55 ft | 0 kts | 207° |
| 2026-04-14 07:12 | 25.93049 | 119.66531 | 55 ft | 2 kts | 207° |
| 2026-04-14 07:13 | 25.93032 | 119.66522 | 55 ft | 3 kts | 207° |
| 2026-04-14 07:13 | 25.93005 | 119.66506 | 55 ft | 5 kts | 207° |
| 2026-04-14 07:13 | 25.92967 | 119.66484 | 55 ft | 6 kts | 207° |
| 2026-04-14 07:13 | 25.92932 | 119.66446 | 55 ft | 7 kts | 257° |
| 2026-04-14 07:14 | 25.92948 | 119.66386 | 55 ft | 8 kts | 296° |
| 2026-04-14 07:14 | 25.92974 | 119.66320 | 55 ft | 9 kts | 277° |
| 2026-04-14 07:14 | 25.92939 | 119.66260 | 55 ft | 10 kts | 209° |
| 2026-04-14 07:14 | 25.92872 | 119.66225 | 55 ft | 11 kts | 207° |
| 2026-04-14 07:15 | 25.92801 | 119.66184 | 55 ft | 11 kts | 207° |
| 2026-04-14 07:15 | 25.92725 | 119.66142 | 55 ft | 12 kts | 207° |
| 2026-04-14 07:15 | 25.92644 | 119.66097 | 55 ft | 13 kts | 207° |
| 2026-04-14 07:15 | 25.92560 | 119.66048 | 55 ft | 13 kts | 208° |
| 2026-04-14 07:16 | 25.92472 | 119.66000 | 55 ft | 14 kts | 205° |
| 2026-04-14 07:16 | 25.92383 | 119.65949 | 55 ft | 14 kts | 206° |
| 2026-04-14 07:16 | 25.92291 | 119.65900 | 55 ft | 14 kts | 205° |
| 2026-04-14 07:16 | 25.92198 | 119.65844 | 55 ft | 15 kts | 208° |
| 2026-04-14 07:17 | 25.92104 | 119.65791 | 55 ft | 15 kts | 206° |
| 2026-04-14 07:17 | 25.92009 | 119.65738 | 55 ft | 12 kts | 209° |
| 2026-04-14 07:17 | 25.91990 | 119.65662 | 55 ft | 10 kts | 292° |
| 2026-04-14 07:17 | 25.92002 | 119.65633 | 55 ft | 0 kts | 297° |
| 2026-04-14 07:19 | 25.92003 | 119.65633 | 55 ft | 0 kts | 297° |
| 2026-04-14 07:19 | 25.92007 | 119.65625 | 55 ft | 1 kts | 297° |
| 2026-04-14 07:19 | 25.92015 | 119.65607 | 55 ft | 3 kts | 297° |
| 2026-04-14 07:19 | 25.92031 | 119.65573 | 55 ft | 5 kts | 301° |
| 2026-04-14 07:20 | 25.92069 | 119.65552 | 55 ft | 7 kts | 8° |
| 2026-04-14 07:20 | 25.92118 | 119.65575 | 55 ft | 8 kts | 27° |
| 2026-04-14 07:20 | 25.92246 | 119.65649 | 55 ft | 48 kts | 28° |
| 2026-04-14 07:20 | 25.92757 | 119.65939 | 55 ft | 113 kts | 28° |
| 2026-04-14 07:21 | 25.93615 | 119.66421 | 78 ft | 158 kts | 29° |
| 2026-04-14 07:21 | 25.94555 | 119.66913 | 655 ft | 148 kts | 26° |
| 2026-04-14 07:21 | 25.95520 | 119.67398 | 998 ft | 158 kts | 25° |
| 2026-04-14 07:21 | 25.96567 | 119.67917 | 1308 ft | 174 kts | 24° |
| 2026-04-14 07:22 | 25.97724 | 119.68496 | 1658 ft | 190 kts | 23° |
| 2026-04-14 07:22 | 25.98982 | 119.69135 | 2034 ft | 205 kts | 23° |
| 2026-04-14 07:22 | 26.00296 | 119.69806 | 2595 ft | 208 kts | 23° |
| 2026-04-14 07:22 | 26.01609 | 119.70484 | 3096 ft | 218 kts | 22° |
| 2026-04-14 07:23 | 26.03059 | 119.71227 | 3441 ft | 240 kts | 22° |
| 2026-04-14 07:23 | 26.04625 | 119.72032 | 3989 ft | 253 kts | 22° |
| 2026-04-14 07:23 | 26.06235 | 119.72858 | 4724 ft | 258 kts | 20° |
| 2026-04-14 07:23 | 26.07978 | 119.73257 | 5463 ft | 256 kts | 349° |
| 2026-04-14 07:24 | 26.09584 | 119.72589 | 6205 ft | 251 kts | 321° |
| 2026-04-14 07:24 | 26.10738 | 119.71146 | 6922 ft | 249 kts | 294° |
| 2026-04-14 07:24 | 26.11166 | 119.69320 | 7644 ft | 248 kts | 269° |
| 2026-04-14 07:24 | 26.10810 | 119.67464 | 8336 ft | 250 kts | 244° |
| 2026-04-14 07:25 | 26.09738 | 119.65984 | 9035 ft | 255 kts | 218° |
| 2026-04-14 07:25 | 26.08100 | 119.65177 | 9722 ft | 263 kts | 194° |
| 2026-04-14 07:25 | 26.06257 | 119.65018 | 10445 ft | 269 kts | 184° |
| 2026-04-14 07:25 | 26.04382 | 119.65049 | 11097 ft | 273 kts | 183° |
| 2026-04-14 07:26 | 26.02458 | 119.65100 | 11730 ft | 277 kts | 183° |
| 2026-04-14 07:26 | 26.00512 | 119.65136 | 12364 ft | 280 kts | 184° |
| 2026-04-14 07:26 | 25.98560 | 119.65157 | 12976 ft | 284 kts | 184° |
| 2026-04-14 07:26 | 25.96571 | 119.65168 | 13584 ft | 287 kts | 184° |
| 2026-04-14 07:27 | 25.94573 | 119.65177 | 14201 ft | 289 kts | 185° |
| 2026-04-14 07:27 | 25.92587 | 119.65070 | 14779 ft | 286 kts | 199° |
| 2026-04-14 07:27 | 25.90826 | 119.64159 | 15329 ft | 277 kts | 224° |
| 2026-04-14 07:27 | 25.89548 | 119.62563 | 15647 ft | 283 kts | 238° |
| 2026-04-14 07:28 | 25.88391 | 119.60722 | 15903 ft | 298 kts | 238° |
| 2026-04-14 07:28 | 25.87153 | 119.58780 | 16148 ft | 312 kts | 238° |
| 2026-04-14 07:28 | 25.85870 | 119.56786 | 16358 ft | 326 kts | 237° |
| 2026-04-14 07:28 | 25.84517 | 119.54693 | 16576 ft | 339 kts | 237° |
| 2026-04-14 07:29 | 25.83099 | 119.52508 | 16804 ft | 351 kts | 237° |
| 2026-04-14 07:29 | 25.81658 | 119.50290 | 17002 ft | 363 kts | 237° |
| 2026-04-14 07:29 | 25.80156 | 119.47980 | 17182 ft | 374 kts | 237° |
| 2026-04-14 07:29 | 25.78597 | 119.45585 | 17356 ft | 385 kts | 237° |
| 2026-04-14 07:30 | 25.77022 | 119.43167 | 17530 ft | 394 kts | 237° |
| 2026-04-14 07:30 | 25.75374 | 119.40666 | 17688 ft | 404 kts | 236° |
| 2026-04-14 07:30 | 25.73618 | 119.38234 | 17851 ft | 413 kts | 233° |
| 2026-04-14 07:30 | 25.71687 | 119.35833 | 18135 ft | 419 kts | 230° |
| 2026-04-14 07:31 | 25.69684 | 119.33475 | 18518 ft | 420 kts | 230° |
| 2026-04-14 07:31 | 25.67684 | 119.31122 | 18910 ft | 422 kts | 230° |
| 2026-04-14 07:31 | 25.65651 | 119.28731 | 19276 ft | 424 kts | 230° |
| 2026-04-14 07:31 | 25.63645 | 119.26374 | 19637 ft | 426 kts | 230° |
| 2026-04-14 07:32 | 25.61614 | 119.23988 | 19989 ft | 428 kts | 230° |
| 2026-04-14 07:32 | 25.59550 | 119.21564 | 20350 ft | 430 kts | 230° |
| 2026-04-14 07:32 | 25.57482 | 119.19140 | 20656 ft | 432 kts | 230° |
| 2026-04-14 07:32 | 25.55410 | 119.16709 | 21012 ft | 433 kts | 230° |
| 2026-04-14 07:33 | 25.53339 | 119.14283 | 21331 ft | 435 kts | 230° |
| 2026-04-14 07:33 | 25.51278 | 119.11868 | 21660 ft | 437 kts | 230° |
| 2026-04-14 07:33 | 25.49174 | 119.09405 | 21973 ft | 439 kts | 230° |
| 2026-04-14 07:34 | 25.42835 | 119.01990 | 22843 ft | 444 kts | 230° |
| 2026-04-14 07:34 | 25.40706 | 118.99501 | 23098 ft | 445 kts | 230° |
| 2026-04-14 07:34 | 25.38571 | 118.97006 | 23360 ft | 447 kts | 230° |
| 2026-04-14 07:35 | 25.36448 | 118.94529 | 23704 ft | 446 kts | 230° |
| 2026-04-14 07:35 | 25.34322 | 118.92049 | 24084 ft | 444 kts | 230° |
| 2026-04-14 07:35 | 25.32221 | 118.89552 | 24455 ft | 442 kts | 231° |
| 2026-04-14 07:35 | 25.30167 | 118.87064 | 24808 ft | 440 kts | 231° |
| 2026-04-14 07:36 | 25.28109 | 118.84563 | 25161 ft | 439 kts | 231° |
| 2026-04-14 07:36 | 25.26048 | 118.82060 | 25505 ft | 438 kts | 231° |
| 2026-04-14 07:36 | 25.23996 | 118.79573 | 25833 ft | 437 kts | 231° |
| 2026-04-14 07:36 | 25.21950 | 118.77097 | 26160 ft | 436 kts | 231° |
| 2026-04-14 07:37 | 25.19932 | 118.74657 | 26494 ft | 435 kts | 231° |
| 2026-04-14 07:37 | 25.17900 | 118.72201 | 26826 ft | 434 kts | 231° |
| 2026-04-14 07:37 | 25.15851 | 118.69726 | 27145 ft | 433 kts | 230° |
| 2026-04-14 07:37 | 25.13819 | 118.67275 | 27468 ft | 432 kts | 230° |
| 2026-04-14 07:38 | 25.11805 | 118.64845 | 27789 ft | 431 kts | 230° |
| 2026-04-14 07:38 | 25.09789 | 118.62416 | 28114 ft | 430 kts | 230° |
| 2026-04-14 07:38 | 25.07747 | 118.60006 | 28437 ft | 429 kts | 229° |
| 2026-04-14 07:38 | 25.05695 | 118.57651 | 28758 ft | 428 kts | 229° |
| 2026-04-14 07:39 | 25.03611 | 118.55272 | 29068 ft | 427 kts | 229° |
| 2026-04-14 07:39 | 25.01567 | 118.52939 | 29385 ft | 426 kts | 229° |
| 2026-04-14 07:39 | 24.99512 | 118.50588 | 29698 ft | 425 kts | 229° |
| 2026-04-14 07:39 | 24.97450 | 118.48229 | 29997 ft | 425 kts | 229° |
| 2026-04-14 07:40 | 24.95424 | 118.45908 | 30288 ft | 424 kts | 229° |
| 2026-04-14 07:40 | 24.93360 | 118.43546 | 30582 ft | 423 kts | 229° |
| 2026-04-14 07:40 | 24.91346 | 118.41240 | 30866 ft | 422 kts | 229° |
| 2026-04-14 07:40 | 24.89296 | 118.38895 | 31152 ft | 422 kts | 229° |
| 2026-04-14 07:41 | 24.87256 | 118.36561 | 31430 ft | 421 kts | 229° |
| 2026-04-14 07:41 | 24.85244 | 118.34259 | 31701 ft | 420 kts | 229° |
| 2026-04-14 07:41 | 24.83210 | 118.31936 | 31994 ft | 420 kts | 229° |
| 2026-04-14 07:41 | 24.81187 | 118.29623 | 32270 ft | 419 kts | 229° |
| 2026-04-14 07:42 | 24.79188 | 118.27340 | 32527 ft | 419 kts | 229° |
| 2026-04-14 07:42 | 24.77166 | 118.25032 | 32797 ft | 418 kts | 229° |
| 2026-04-14 07:42 | 24.75153 | 118.22735 | 33082 ft | 418 kts | 229° |
| 2026-04-14 07:42 | 24.73131 | 118.20428 | 33376 ft | 417 kts | 229° |
| 2026-04-14 07:43 | 24.71125 | 118.18141 | 33684 ft | 416 kts | 229° |
| 2026-04-14 07:43 | 24.69103 | 118.15842 | 33985 ft | 414 kts | 229° |
| 2026-04-14 07:43 | 24.67125 | 118.13594 | 34249 ft | 414 kts | 229° |
| 2026-04-14 07:43 | 24.65119 | 118.11314 | 34505 ft | 413 kts | 229° |
| 2026-04-14 07:44 | 24.63135 | 118.09060 | 34744 ft | 412 kts | 229° |
| 2026-04-14 07:44 | 24.61138 | 118.06792 | 34991 ft | 411 kts | 229° |
| 2026-04-14 07:44 | 24.59141 | 118.04526 | 35247 ft | 410 kts | 229° |
| 2026-04-14 07:44 | 24.57163 | 118.02282 | 35472 ft | 409 kts | 229° |
| 2026-04-14 07:45 | 24.55205 | 118.00018 | 35670 ft | 408 kts | 230° |
| 2026-04-14 07:45 | 24.53313 | 117.97735 | 35854 ft | 408 kts | 230° |
| 2026-04-14 07:45 | 24.51415 | 117.95427 | 36036 ft | 407 kts | 230° |
| 2026-04-14 07:45 | 24.49505 | 117.93105 | 36203 ft | 407 kts | 230° |
| 2026-04-14 07:46 | 24.47622 | 117.90822 | 36319 ft | 408 kts | 230° |
| 2026-04-14 07:46 | 24.45691 | 117.88483 | 36430 ft | 409 kts | 230° |
| 2026-04-14 07:46 | 24.43787 | 117.86183 | 36530 ft | 409 kts | 230° |
| 2026-04-14 07:46 | 24.41886 | 117.83889 | 36632 ft | 410 kts | 230° |
| 2026-04-14 07:47 | 24.39966 | 117.81573 | 36741 ft | 410 kts | 230° |
| 2026-04-14 07:47 | 24.36112 | 117.76929 | 36919 ft | 411 kts | 230° |
| 2026-04-14 07:48 | 24.32270 | 117.72303 | 37102 ft | 412 kts | 230° |
| 2026-04-14 07:48 | 24.28401 | 117.67651 | 37249 ft | 413 kts | 230° |
| 2026-04-14 07:49 | 24.24538 | 117.63008 | 37382 ft | 413 kts | 230° |
| 2026-04-14 07:49 | 24.20671 | 117.58363 | 37532 ft | 413 kts | 231° |
| 2026-04-14 07:50 | 24.17369 | 117.53250 | 37603 ft | 412 kts | 242° |
| 2026-04-14 07:50 | 24.15158 | 117.47588 | 37694 ft | 412 kts | 253° |
| 2026-04-14 07:51 | 24.14051 | 117.41459 | 37815 ft | 414 kts | 263° |
| 2026-04-14 07:51 | 24.13944 | 117.35159 | 37873 ft | 416 kts | 268° |
| 2026-04-14 07:52 | 24.13988 | 117.28841 | 38008 ft | 416 kts | 268° |
| 2026-04-14 07:52 | 24.14038 | 117.22510 | 38023 ft | 416 kts | 268° |
| 2026-04-14 07:53 | 24.14086 | 117.16203 | 38023 ft | 416 kts | 268° |
| 2026-04-14 07:53 | 24.14133 | 117.09879 | 38013 ft | 416 kts | 268° |
| 2026-04-14 07:54 | 24.14175 | 117.03593 | 38005 ft | 416 kts | 268° |
| 2026-04-14 07:54 | 24.14215 | 116.97253 | 37999 ft | 415 kts | 268° |
| 2026-04-14 07:55 | 24.14254 | 116.90932 | 37999 ft | 415 kts | 268° |
| 2026-04-14 07:55 | 24.14352 | 116.84615 | 38000 ft | 416 kts | 270° |
| 2026-04-14 07:56 | 24.14613 | 116.78288 | 38002 ft | 416 kts | 270° |
| 2026-04-14 07:56 | 24.14872 | 116.71953 | 37999 ft | 417 kts | 270° |
| 2026-04-14 07:57 | 24.15128 | 116.65655 | 37998 ft | 417 kts | 270° |
| 2026-04-14 07:57 | 24.15382 | 116.59329 | 38003 ft | 417 kts | 270° |
| 2026-04-14 07:58 | 24.15635 | 116.52958 | 38003 ft | 418 kts | 270° |
| 2026-04-14 07:58 | 24.15884 | 116.46639 | 38006 ft | 418 kts | 270° |
| 2026-04-14 07:59 | 24.15907 | 116.40292 | 38009 ft | 416 kts | 266° |
| 2026-04-14 07:59 | 24.15735 | 116.33997 | 38009 ft | 416 kts | 266° |
| 2026-04-14 08:00 | 24.15558 | 116.27644 | 38006 ft | 417 kts | 266° |
| 2026-04-14 08:00 | 24.15379 | 116.21330 | 37999 ft | 418 kts | 266° |
| 2026-04-14 08:01 | 24.15195 | 116.14986 | 38001 ft | 417 kts | 266° |
| 2026-04-14 08:01 | 24.15009 | 116.08619 | 37996 ft | 417 kts | 266° |
| 2026-04-14 08:02 | 24.14820 | 116.02277 | 37990 ft | 418 kts | 266° |
| 2026-04-14 08:02 | 24.14629 | 115.95946 | 37985 ft | 418 kts | 266° |
| 2026-04-14 08:03 | 24.14435 | 115.89581 | 37984 ft | 417 kts | 266° |
| 2026-04-14 08:03 | 24.14239 | 115.83265 | 37983 ft | 417 kts | 266° |
| 2026-04-14 08:04 | 24.14040 | 115.76932 | 37982 ft | 418 kts | 266° |
| 2026-04-14 08:04 | 24.13837 | 115.70572 | 37983 ft | 418 kts | 266° |
| 2026-04-14 08:05 | 24.13634 | 115.64228 | 37986 ft | 418 kts | 266° |
| 2026-04-14 08:05 | 24.13426 | 115.57877 | 37988 ft | 417 kts | 266° |
| 2026-04-14 08:06 | 24.13217 | 115.51544 | 37992 ft | 418 kts | 266° |
| 2026-04-14 08:06 | 24.13002 | 115.45156 | 37995 ft | 417 kts | 266° |
| 2026-04-14 08:07 | 24.12789 | 115.38844 | 37996 ft | 417 kts | 266° |
| 2026-04-14 08:07 | 24.12571 | 115.32494 | 37998 ft | 417 kts | 265° |
| 2026-04-14 08:08 | 24.12351 | 115.26154 | 37997 ft | 417 kts | 265° |
| 2026-04-14 08:08 | 24.12129 | 115.19826 | 37997 ft | 417 kts | 265° |
| 2026-04-14 08:09 | 24.11904 | 115.13505 | 37996 ft | 417 kts | 265° |
| 2026-04-14 08:09 | 24.11677 | 115.07166 | 37994 ft | 417 kts | 265° |
| 2026-04-14 08:10 | 24.11448 | 115.00867 | 37993 ft | 416 kts | 265° |
| 2026-04-14 08:10 | 24.11215 | 114.94541 | 37990 ft | 416 kts | 265° |
| 2026-04-14 08:11 | 24.10979 | 114.88216 | 37990 ft | 416 kts | 265° |
| 2026-04-14 08:11 | 24.10743 | 114.81918 | 37989 ft | 417 kts | 266° |
| 2026-04-14 08:12 | 24.10502 | 114.75590 | 37985 ft | 416 kts | 265° |
| 2026-04-14 08:12 | 24.10259 | 114.69290 | 37989 ft | 416 kts | 266° |
| 2026-04-14 08:13 | 24.10014 | 114.62965 | 37996 ft | 416 kts | 265° |
| 2026-04-14 08:13 | 24.09767 | 114.56654 | 38004 ft | 416 kts | 265° |
| 2026-04-14 08:14 | 24.09517 | 114.50358 | 38013 ft | 416 kts | 266° |
| 2026-04-14 08:14 | 24.09265 | 114.44052 | 38022 ft | 417 kts | 265° |
| 2026-04-14 08:15 | 24.09006 | 114.37716 | 38031 ft | 416 kts | 265° |
| 2026-04-14 08:15 | 24.08717 | 114.31394 | 38039 ft | 416 kts | 262° |
| 2026-04-14 08:16 | 24.07631 | 114.25206 | 38051 ft | 415 kts | 253° |
| 2026-04-14 08:16 | 24.05515 | 114.19389 | 38057 ft | 414 kts | 243° |
| 2026-04-14 08:17 | 24.02421 | 114.14074 | 38073 ft | 417 kts | 233° |
| 2026-04-14 08:17 | 23.98703 | 114.09212 | 38085 ft | 418 kts | 232° |
| 2026-04-14 08:18 | 23.94919 | 114.04381 | 38088 ft | 418 kts | 231° |
| 2026-04-14 08:18 | 23.91123 | 113.99560 | 38087 ft | 418 kts | 231° |
| 2026-04-14 08:19 | 23.87321 | 113.94736 | 38074 ft | 418 kts | 231° |
| 2026-04-14 08:19 | 23.83530 | 113.89924 | 38054 ft | 418 kts | 231° |
| 2026-04-14 08:20 | 23.79742 | 113.85120 | 38032 ft | 419 kts | 231° |
| 2026-04-14 08:20 | 23.75947 | 113.80314 | 38018 ft | 418 kts | 231° |
| 2026-04-14 08:21 | 23.72159 | 113.75518 | 38008 ft | 418 kts | 231° |
| 2026-04-14 08:21 | 23.68352 | 113.70704 | 37995 ft | 419 kts | 231° |
| 2026-04-14 08:22 | 23.64551 | 113.65904 | 37984 ft | 419 kts | 231° |
| 2026-04-14 08:22 | 23.60529 | 113.61279 | 37973 ft | 420 kts | 226° |
| 2026-04-14 08:23 | 23.56103 | 113.57112 | 37960 ft | 423 kts | 221° |
| 2026-04-14 08:23 | 23.51282 | 113.53420 | 37957 ft | 425 kts | 216° |
| 2026-04-14 08:24 | 23.46309 | 113.49912 | 37955 ft | 425 kts | 216° |
| 2026-04-14 08:24 | 23.41326 | 113.46406 | 37957 ft | 425 kts | 216° |
| 2026-04-14 08:25 | 23.36362 | 113.42921 | 37960 ft | 425 kts | 216° |
| 2026-04-14 08:25 | 23.31373 | 113.39425 | 37957 ft | 426 kts | 216° |
| 2026-04-14 08:26 | 23.26363 | 113.35915 | 37960 ft | 426 kts | 216° |
| 2026-04-14 08:26 | 23.21371 | 113.32422 | 37954 ft | 427 kts | 216° |
| 2026-04-14 08:27 | 23.16359 | 113.28918 | 37941 ft | 427 kts | 216° |
| 2026-04-14 08:27 | 23.11404 | 113.25410 | 37929 ft | 426 kts | 220° |
| 2026-04-14 08:28 | 23.07219 | 113.20892 | 37927 ft | 421 kts | 235° |
| 2026-04-14 08:28 | 23.04425 | 113.15368 | 37922 ft | 420 kts | 250° |
| 2026-04-14 08:29 | 23.03146 | 113.09174 | 37925 ft | 422 kts | 264° |
| 2026-04-14 08:29 | 23.03311 | 113.02805 | 37917 ft | 425 kts | 272° |
| 2026-04-14 08:30 | 23.03749 | 112.96460 | 37915 ft | 424 kts | 272° |
| 2026-04-14 08:30 | 23.04195 | 112.90057 | 37917 ft | 424 kts | 272° |
| 2026-04-14 08:31 | 23.04635 | 112.83686 | 37921 ft | 424 kts | 272° |
| 2026-04-14 08:31 | 23.05291 | 112.74125 | 37926 ft | 424 kts | 272° |
| 2026-04-14 08:32 | 23.05722 | 112.67778 | 37925 ft | 425 kts | 272° |
| 2026-04-14 08:32 | 23.06154 | 112.61386 | 37927 ft | 424 kts | 272° |
| 2026-04-14 08:33 | 23.06583 | 112.54997 | 37928 ft | 425 kts | 272° |
| 2026-04-14 08:33 | 23.07192 | 112.48650 | 37930 ft | 426 kts | 276° |
| 2026-04-14 08:34 | 23.08362 | 112.42309 | 37937 ft | 427 kts | 280° |
| 2026-04-14 08:34 | 23.09683 | 112.36041 | 37946 ft | 427 kts | 280° |
| 2026-04-14 08:35 | 23.11011 | 112.29743 | 37953 ft | 427 kts | 279° |
| 2026-04-14 08:35 | 23.12327 | 112.23485 | 37958 ft | 427 kts | 279° |
| 2026-04-14 08:36 | 23.13640 | 112.17231 | 37966 ft | 427 kts | 279° |
| 2026-04-14 08:36 | 23.14960 | 112.10933 | 37977 ft | 427 kts | 279° |
| 2026-04-14 08:37 | 23.16268 | 112.04672 | 37988 ft | 427 kts | 279° |
| 2026-04-14 08:37 | 23.17580 | 111.98379 | 38000 ft | 426 kts | 279° |
| 2026-04-14 08:38 | 23.18889 | 111.92086 | 37995 ft | 426 kts | 279° |
| 2026-04-14 08:38 | 23.20189 | 111.85823 | 37980 ft | 426 kts | 279° |
| 2026-04-14 08:39 | 23.21512 | 111.79503 | 37965 ft | 426 kts | 279° |
| 2026-04-14 08:39 | 23.22838 | 111.73286 | 37941 ft | 426 kts | 280° |
| 2026-04-14 08:40 | 23.24173 | 111.67004 | 37931 ft | 426 kts | 279° |
| 2026-04-14 08:40 | 23.25503 | 111.60715 | 37924 ft | 425 kts | 279° |
| 2026-04-14 08:41 | 23.26819 | 111.54477 | 37918 ft | 425 kts | 279° |
| 2026-04-14 08:41 | 23.28119 | 111.48246 | 37913 ft | 425 kts | 279° |
| 2026-04-14 08:42 | 23.29410 | 111.41975 | 37913 ft | 424 kts | 279° |
| 2026-04-14 08:42 | 23.30697 | 111.35702 | 37914 ft | 424 kts | 279° |
| 2026-04-14 08:43 | 23.31975 | 111.29464 | 37921 ft | 424 kts | 279° |
| 2026-04-14 08:43 | 23.33249 | 111.23225 | 37925 ft | 424 kts | 279° |
| 2026-04-14 08:44 | 23.34519 | 111.17001 | 37924 ft | 423 kts | 279° |
| 2026-04-14 08:44 | 23.35817 | 111.10770 | 37930 ft | 423 kts | 279° |
| 2026-04-14 08:45 | 23.37149 | 111.04547 | 37930 ft | 423 kts | 279° |
| 2026-04-14 08:45 | 23.38459 | 110.98396 | 37927 ft | 423 kts | 279° |
| 2026-04-14 08:46 | 23.39783 | 110.92149 | 37924 ft | 423 kts | 279° |
| 2026-04-14 08:46 | 23.41093 | 110.85944 | 37922 ft | 423 kts | 279° |
| 2026-04-14 08:47 | 23.42406 | 110.79710 | 37916 ft | 422 kts | 279° |
| 2026-04-14 08:47 | 23.43717 | 110.73480 | 37911 ft | 422 kts | 279° |
| 2026-04-14 08:48 | 23.45015 | 110.67220 | 37907 ft | 423 kts | 279° |
| 2026-04-14 08:48 | 23.46287 | 110.60992 | 37906 ft | 422 kts | 279° |
| 2026-04-14 08:49 | 23.47550 | 110.54796 | 37901 ft | 423 kts | 279° |
| 2026-04-14 08:49 | 23.48817 | 110.48566 | 37897 ft | 422 kts | 279° |
| 2026-04-14 08:50 | 23.50083 | 110.42331 | 37892 ft | 422 kts | 279° |
| 2026-04-14 08:50 | 23.51350 | 110.36080 | 37898 ft | 422 kts | 279° |
| 2026-04-14 08:51 | 23.52647 | 110.29881 | 37903 ft | 422 kts | 279° |
| 2026-04-14 08:51 | 23.53963 | 110.23632 | 37901 ft | 422 kts | 279° |
| 2026-04-14 08:52 | 23.55267 | 110.17413 | 37923 ft | 422 kts | 279° |
| 2026-04-14 08:52 | 23.56563 | 110.11202 | 37939 ft | 422 kts | 279° |
| 2026-04-14 08:53 | 23.57858 | 110.04985 | 37952 ft | 422 kts | 279° |
| 2026-04-14 08:53 | 23.59156 | 109.98733 | 37961 ft | 422 kts | 279° |
| 2026-04-14 08:54 | 23.60441 | 109.92533 | 37960 ft | 422 kts | 279° |
| 2026-04-14 08:54 | 23.61730 | 109.86306 | 37950 ft | 422 kts | 279° |
| 2026-04-14 08:55 | 23.63018 | 109.80063 | 37939 ft | 421 kts | 279° |
| 2026-04-14 08:55 | 23.64295 | 109.73861 | 37922 ft | 421 kts | 279° |
| 2026-04-14 08:56 | 23.65579 | 109.67615 | 37911 ft | 421 kts | 279° |
| 2026-04-14 08:56 | 23.66855 | 109.61388 | 37905 ft | 420 kts | 279° |
| 2026-04-14 08:57 | 23.68120 | 109.55209 | 37904 ft | 419 kts | 279° |
| 2026-04-14 08:57 | 23.69389 | 109.48991 | 37891 ft | 419 kts | 279° |
| 2026-04-14 08:58 | 23.70653 | 109.42787 | 37886 ft | 419 kts | 279° |
| 2026-04-14 08:58 | 23.71912 | 109.36597 | 37886 ft | 419 kts | 279° |
| 2026-04-14 08:59 | 23.73159 | 109.30438 | 37881 ft | 418 kts | 279° |
| 2026-04-14 08:59 | 23.74415 | 109.24229 | 37875 ft | 418 kts | 279° |
| 2026-04-14 09:00 | 23.75648 | 109.18044 | 37879 ft | 417 kts | 278° |
| 2026-04-14 09:00 | 23.76477 | 109.11833 | 37878 ft | 414 kts | 272° |
| 2026-04-14 09:01 | 23.76891 | 109.05580 | 37879 ft | 414 kts | 271° |
| 2026-04-14 09:01 | 23.77275 | 108.99340 | 37884 ft | 413 kts | 271° |
| 2026-04-14 09:02 | 23.77656 | 108.93057 | 37889 ft | 413 kts | 271° |
| 2026-04-14 09:02 | 23.78031 | 108.86816 | 37903 ft | 413 kts | 271° |
| 2026-04-14 09:03 | 23.78402 | 108.80590 | 37911 ft | 414 kts | 271° |
| 2026-04-14 09:03 | 23.78774 | 108.74308 | 37921 ft | 413 kts | 271° |
| 2026-04-14 09:04 | 23.79142 | 108.68052 | 37927 ft | 413 kts | 271° |
| 2026-04-14 09:04 | 23.79506 | 108.61809 | 37924 ft | 413 kts | 271° |
| 2026-04-14 09:05 | 23.79867 | 108.55576 | 37922 ft | 413 kts | 271° |
| 2026-04-14 09:05 | 23.80226 | 108.49342 | 37918 ft | 412 kts | 271° |
| 2026-04-14 09:06 | 23.80584 | 108.43081 | 37916 ft | 412 kts | 271° |
| 2026-04-14 09:06 | 23.80938 | 108.36843 | 37911 ft | 412 kts | 271° |
| 2026-04-14 09:07 | 23.81288 | 108.30614 | 37905 ft | 412 kts | 271° |
| 2026-04-14 09:07 | 23.81637 | 108.24362 | 37902 ft | 412 kts | 271° |
| 2026-04-14 09:08 | 23.81980 | 108.18143 | 37899 ft | 412 kts | 271° |
| 2026-04-14 09:08 | 23.82317 | 108.11887 | 37899 ft | 411 kts | 271° |
| 2026-04-14 09:09 | 23.82633 | 108.05687 | 37896 ft | 411 kts | 271° |
| 2026-04-14 09:09 | 23.82948 | 107.99476 | 37887 ft | 411 kts | 271° |
| 2026-04-14 09:10 | 23.83262 | 107.93256 | 37887 ft | 411 kts | 271° |
| 2026-04-14 09:10 | 23.83573 | 107.87014 | 37906 ft | 411 kts | 271° |
| 2026-04-14 09:11 | 23.83956 | 107.80777 | 37923 ft | 412 kts | 272° |
| 2026-04-14 09:11 | 23.84430 | 107.74514 | 37938 ft | 411 kts | 272° |
| 2026-04-14 09:12 | 23.84894 | 107.68259 | 37942 ft | 411 kts | 272° |
| 2026-04-14 09:12 | 23.85343 | 107.62080 | 37937 ft | 411 kts | 272° |
| 2026-04-14 09:13 | 23.85792 | 107.55858 | 37929 ft | 410 kts | 272° |
| 2026-04-14 09:13 | 23.86235 | 107.49658 | 37919 ft | 411 kts | 272° |
| 2026-04-14 09:14 | 23.86676 | 107.43446 | 37910 ft | 411 kts | 272° |
| 2026-04-14 09:14 | 23.87114 | 107.37251 | 37912 ft | 411 kts | 272° |
| 2026-04-14 09:15 | 23.87553 | 107.30997 | 37914 ft | 411 kts | 272° |
| 2026-04-14 09:15 | 23.87985 | 107.24789 | 37909 ft | 410 kts | 272° |
| 2026-04-14 09:16 | 23.88415 | 107.18585 | 37912 ft | 410 kts | 272° |
| 2026-04-14 09:16 | 23.88845 | 107.12377 | 37919 ft | 409 kts | 272° |
| 2026-04-14 09:17 | 23.89271 | 107.06158 | 37920 ft | 410 kts | 272° |
| 2026-04-14 09:17 | 23.89691 | 106.99980 | 37925 ft | 410 kts | 272° |
| 2026-04-14 09:18 | 23.90115 | 106.93722 | 37925 ft | 410 kts | 272° |
| 2026-04-14 09:18 | 23.90530 | 106.87549 | 37922 ft | 410 kts | 272° |
| 2026-04-14 09:19 | 23.90945 | 106.81343 | 37915 ft | 410 kts | 272° |
| 2026-04-14 09:19 | 23.91358 | 106.75153 | 37898 ft | 409 kts | 272° |
| 2026-04-14 09:20 | 23.91766 | 106.68933 | 37902 ft | 409 kts | 272° |
| 2026-04-14 09:20 | 23.92210 | 106.62743 | 37901 ft | 409 kts | 274° |
| 2026-04-14 09:21 | 23.93097 | 106.56604 | 37890 ft | 410 kts | 279° |
| 2026-04-14 09:21 | 23.94313 | 106.50542 | 37890 ft | 410 kts | 279° |
| 2026-04-14 09:22 | 23.95540 | 106.44467 | 37885 ft | 409 kts | 279° |
| 2026-04-14 09:22 | 23.96763 | 106.38427 | 37888 ft | 408 kts | 279° |
| 2026-04-14 09:23 | 23.97989 | 106.32340 | 37890 ft | 409 kts | 279° |
| 2026-04-14 09:23 | 23.99206 | 106.26306 | 37879 ft | 408 kts | 279° |
| 2026-04-14 09:24 | 24.00422 | 106.20261 | 37870 ft | 408 kts | 279° |
| 2026-04-14 09:24 | 24.01624 | 106.14266 | 37868 ft | 407 kts | 279° |
| 2026-04-14 09:25 | 24.02830 | 106.08241 | 37870 ft | 407 kts | 279° |
| 2026-04-14 09:25 | 24.04040 | 106.02187 | 37868 ft | 407 kts | 279° |
| 2026-04-14 09:26 | 24.05245 | 105.96143 | 37876 ft | 406 kts | 279° |
| 2026-04-14 09:26 | 24.06449 | 105.90090 | 37912 ft | 406 kts | 279° |
| 2026-04-14 09:27 | 24.07635 | 105.84108 | 37939 ft | 405 kts | 279° |
| 2026-04-14 09:27 | 24.08826 | 105.78085 | 37969 ft | 404 kts | 279° |
| 2026-04-14 09:28 | 24.10015 | 105.72062 | 37985 ft | 405 kts | 279° |
| 2026-04-14 09:28 | 24.11397 | 105.66093 | 37988 ft | 405 kts | 282° |
| 2026-04-14 09:29 | 24.12861 | 105.60105 | 37987 ft | 405 kts | 281° |
| 2026-04-14 09:29 | 24.14302 | 105.54182 | 37985 ft | 404 kts | 282° |
| 2026-04-14 09:30 | 24.15742 | 105.48278 | 37994 ft | 403 kts | 282° |
| 2026-04-14 09:30 | 24.17176 | 105.42370 | 38008 ft | 403 kts | 282° |
| 2026-04-14 09:31 | 24.18613 | 105.36443 | 38026 ft | 403 kts | 281° |
| 2026-04-14 09:31 | 24.20042 | 105.30525 | 38030 ft | 402 kts | 281° |
| 2026-04-14 09:32 | 24.21469 | 105.24608 | 38035 ft | 401 kts | 281° |
| 2026-04-14 09:33 | 24.23516 | 105.15751 | 38039 ft | 400 kts | 280° |
| 2026-04-14 09:33 | 24.24827 | 105.09814 | 38040 ft | 400 kts | 280° |
| 2026-04-14 09:34 | 24.26132 | 105.03904 | 38056 ft | 400 kts | 280° |
| 2026-04-14 09:34 | 24.27439 | 104.97982 | 38064 ft | 399 kts | 280° |
| 2026-04-14 09:35 | 24.28744 | 104.92056 | 38074 ft | 400 kts | 280° |
| 2026-04-14 09:35 | 24.30049 | 104.86133 | 38080 ft | 399 kts | 280° |
| 2026-04-14 09:36 | 24.31342 | 104.80247 | 38089 ft | 399 kts | 280° |
| 2026-04-14 09:36 | 24.32635 | 104.74350 | 38102 ft | 399 kts | 281° |
| 2026-04-14 09:37 | 24.33938 | 104.68399 | 38111 ft | 399 kts | 280° |
| 2026-04-14 09:37 | 24.35222 | 104.62521 | 38111 ft | 399 kts | 281° |
| 2026-04-14 09:38 | 24.36517 | 104.56589 | 38117 ft | 398 kts | 281° |
| 2026-04-14 09:38 | 24.37798 | 104.50692 | 38124 ft | 398 kts | 281° |
| 2026-04-14 09:39 | 24.39080 | 104.44795 | 38121 ft | 398 kts | 281° |
| 2026-04-14 09:39 | 24.40357 | 104.38902 | 38138 ft | 398 kts | 281° |
| 2026-04-14 09:40 | 24.41640 | 104.32964 | 38149 ft | 398 kts | 281° |
| 2026-04-14 09:40 | 24.42918 | 104.27045 | 38152 ft | 398 kts | 281° |
| 2026-04-14 09:41 | 24.44185 | 104.21164 | 38162 ft | 397 kts | 280° |
| 2026-04-14 09:41 | 24.45460 | 104.15242 | 38164 ft | 398 kts | 280° |
| 2026-04-14 09:42 | 24.46718 | 104.09370 | 38180 ft | 398 kts | 281° |
| 2026-04-14 09:42 | 24.47990 | 104.03425 | 38199 ft | 398 kts | 281° |
| 2026-04-14 09:43 | 24.49250 | 103.97535 | 38223 ft | 398 kts | 281° |
| 2026-04-14 09:43 | 24.50505 | 103.91640 | 38230 ft | 398 kts | 281° |
| 2026-04-14 09:44 | 24.51764 | 103.85722 | 38238 ft | 398 kts | 281° |
| 2026-04-14 09:44 | 24.53017 | 103.79771 | 38258 ft | 397 kts | 279° |
| 2026-04-14 09:45 | 24.53910 | 103.73825 | 38259 ft | 397 kts | 275° |
| 2026-04-14 09:45 | 24.54289 | 103.67820 | 38266 ft | 396 kts | 271° |
| 2026-04-14 09:46 | 24.54430 | 103.61771 | 38259 ft | 396 kts | 271° |
| 2026-04-14 09:46 | 24.54565 | 103.55695 | 38265 ft | 396 kts | 271° |
| 2026-04-14 09:47 | 24.54691 | 103.49636 | 38257 ft | 397 kts | 271° |
| 2026-04-14 09:47 | 24.54814 | 103.43598 | 38260 ft | 396 kts | 271° |
| 2026-04-14 09:48 | 24.54930 | 103.37555 | 38274 ft | 397 kts | 271° |
| 2026-04-14 09:48 | 24.55046 | 103.31515 | 38272 ft | 397 kts | 270° |